sensor_id;sensor_type;location;lat;lon;timestamp;P1;durP1;ratioP1;P2;durP2;ratioP2
49235;SDS011;35067;48.134;8.378;2023-04-19T00:00:46;16.30;;;9.77;;
49235;SDS011;35067;48.134;8.378;2023-04-19T00:02:07;17.73;;;10.07;;
49235;SDS011;35067;48.134;8.378;2023-04-19T00:03:29;15.13;;;9.65;;
49235;SDS011;35067;48.134;8.378;2023-04-19T00:04:50;17.27;;;8.98;;
49235;SDS011;35067;48.134;8.378;2023-04-19T00:06:12;14.82;;;9.75;;
49235;SDS011;35067;48.134;8.378;2023-04-19T00:07:34;15.52;;;9.35;;
49235;SDS011;35067;48.134;8.378;2023-04-19T00:08:55;13.63;;;8.32;;
49235;SDS011;35067;48.134;8.378;2023-04-19T00:10:16;13.98;;;9.43;;
49235;SDS011;35067;48.134;8.378;2023-04-19T00:11:37;14.80;;;9.77;;
49235;SDS011;35067;48.134;8.378;2023-04-19T00:13:00;17.63;;;9.88;;
49235;SDS011;35067;48.134;8.378;2023-04-19T00:14:21;16.27;;;9.75;;
49235;SDS011;35067;48.134;8.378;2023-04-19T00:15:42;17.73;;;10.23;;
49235;SDS011;35067;48.134;8.378;2023-04-19T00:17:04;15.13;;;8.93;;
49235;SDS011;35067;48.134;8.378;2023-04-19T00:18:25;15.15;;;8.45;;
49235;SDS011;35067;48.134;8.378;2023-04-19T00:19:46;14.75;;;9.00;;
49235;SDS011;35067;48.134;8.378;2023-04-19T00:21:07;14.27;;;8.88;;
49235;SDS011;35067;48.134;8.378;2023-04-19T00:22:28;15.75;;;9.93;;
49235;SDS011;35067;48.134;8.378;2023-04-19T00:23:50;17.02;;;10.80;;
49235;SDS011;35067;48.134;8.378;2023-04-19T00:25:13;19.95;;;11.90;;
49235;SDS011;35067;48.134;8.378;2023-04-19T00:26:34;17.08;;;11.18;;
49235;SDS011;35067;48.134;8.378;2023-04-19T00:27:55;17.27;;;10.82;;
49235;SDS011;35067;48.134;8.378;2023-04-19T00:29:16;21.73;;;11.55;;
49235;SDS011;35067;48.134;8.378;2023-04-19T00:30:37;19.77;;;11.60;;
49235;SDS011;35067;48.134;8.378;2023-04-19T00:31:58;20.20;;;11.50;;
49235;SDS011;35067;48.134;8.378;2023-04-19T00:33:19;19.40;;;11.32;;
49235;SDS011;35067;48.134;8.378;2023-04-19T00:34:40;18.92;;;11.55;;
49235;SDS011;35067;48.134;8.378;2023-04-19T00:36:01;19.33;;;11.57;;
49235;SDS011;35067;48.134;8.378;2023-04-19T00:37:22;22.23;;;11.32;;
49235;SDS011;35067;48.134;8.378;2023-04-19T00:38:43;19.90;;;11.35;;
49235;SDS011;35067;48.134;8.378;2023-04-19T00:40:05;24.50;;;11.73;;
49235;SDS011;35067;48.134;8.378;2023-04-19T00:41:26;21.65;;;13.05;;
49235;SDS011;35067;48.134;8.378;2023-04-19T00:42:47;27.08;;;14.10;;
49235;SDS011;35067;48.134;8.378;2023-04-19T00:44:09;21.58;;;12.85;;
49235;SDS011;35067;48.134;8.378;2023-04-19T00:45:30;25.63;;;12.90;;
49235;SDS011;35067;48.134;8.378;2023-04-19T00:46:52;21.63;;;11.55;;
49235;SDS011;35067;48.134;8.378;2023-04-19T00:48:15;29.77;;;14.77;;
49235;SDS011;35067;48.134;8.378;2023-04-19T00:49:36;24.40;;;13.57;;
49235;SDS011;35067;48.134;8.378;2023-04-19T00:50:57;26.33;;;13.38;;
49235;SDS011;35067;48.134;8.378;2023-04-19T00:52:19;21.58;;;12.63;;
49235;SDS011;35067;48.134;8.378;2023-04-19T00:53:42;25.48;;;13.48;;
49235;SDS011;35067;48.134;8.378;2023-04-19T00:55:03;26.85;;;14.55;;
49235;SDS011;35067;48.134;8.378;2023-04-19T00:56:25;25.63;;;14.38;;
49235;SDS011;35067;48.134;8.378;2023-04-19T00:57:46;23.48;;;13.68;;
49235;SDS011;35067;48.134;8.378;2023-04-19T00:59:07;21.80;;;12.70;;
49235;SDS011;35067;48.134;8.378;2023-04-19T01:00:29;26.08;;;13.43;;
49235;SDS011;35067;48.134;8.378;2023-04-19T01:01:50;25.08;;;12.93;;
49235;SDS011;35067;48.134;8.378;2023-04-19T01:03:11;25.33;;;15.80;;
49235;SDS011;35067;48.134;8.378;2023-04-19T01:04:32;22.45;;;12.30;;
49235;SDS011;35067;48.134;8.378;2023-04-19T01:05:54;23.27;;;13.82;;
49235;SDS011;35067;48.134;8.378;2023-04-19T01:07:16;29.23;;;14.27;;
49235;SDS011;35067;48.134;8.378;2023-04-19T01:08:38;20.42;;;12.30;;
49235;SDS011;35067;48.134;8.378;2023-04-19T01:10:00;20.27;;;12.63;;
49235;SDS011;35067;48.134;8.378;2023-04-19T01:11:22;20.88;;;12.02;;
49235;SDS011;35067;48.134;8.378;2023-04-19T01:12:43;22.60;;;12.93;;
49235;SDS011;35067;48.134;8.378;2023-04-19T01:14:05;21.95;;;13.80;;
49235;SDS011;35067;48.134;8.378;2023-04-19T01:15:26;21.00;;;12.23;;
49235;SDS011;35067;48.134;8.378;2023-04-19T01:16:47;23.58;;;12.35;;
49235;SDS011;35067;48.134;8.378;2023-04-19T01:18:08;20.40;;;11.98;;
49235;SDS011;35067;48.134;8.378;2023-04-19T01:19:29;24.08;;;13.27;;
49235;SDS011;35067;48.134;8.378;2023-04-19T01:20:51;20.63;;;11.93;;
49235;SDS011;35067;48.134;8.378;2023-04-19T01:22:15;22.20;;;12.65;;
49235;SDS011;35067;48.134;8.378;2023-04-19T01:23:42;22.00;;;12.23;;
49235;SDS011;35067;48.134;8.378;2023-04-19T01:25:03;20.40;;;11.82;;
49235;SDS011;35067;48.134;8.378;2023-04-19T01:26:24;22.00;;;11.98;;
49235;SDS011;35067;48.134;8.378;2023-04-19T01:27:46;22.75;;;14.05;;
49235;SDS011;35067;48.134;8.378;2023-04-19T01:29:07;22.65;;;13.02;;
49235;SDS011;35067;48.134;8.378;2023-04-19T01:30:28;22.13;;;13.23;;
49235;SDS011;35067;48.134;8.378;2023-04-19T01:31:49;22.73;;;13.05;;
49235;SDS011;35067;48.134;8.378;2023-04-19T01:33:12;20.38;;;12.57;;
49235;SDS011;35067;48.134;8.378;2023-04-19T01:34:33;19.17;;;11.75;;
49235;SDS011;35067;48.134;8.378;2023-04-19T01:35:54;20.00;;;11.75;;
49235;SDS011;35067;48.134;8.378;2023-04-19T01:37:15;20.13;;;12.07;;
49235;SDS011;35067;48.134;8.378;2023-04-19T01:38:36;20.23;;;12.27;;
49235;SDS011;35067;48.134;8.378;2023-04-19T01:39:57;23.48;;;12.52;;
49235;SDS011;35067;48.134;8.378;2023-04-19T01:41:19;20.33;;;12.88;;
49235;SDS011;35067;48.134;8.378;2023-04-19T01:42:41;22.27;;;13.38;;
49235;SDS011;35067;48.134;8.378;2023-04-19T01:44:02;20.48;;;12.13;;
49235;SDS011;35067;48.134;8.378;2023-04-19T01:45:24;19.02;;;11.82;;
49235;SDS011;35067;48.134;8.378;2023-04-19T01:46:45;20.85;;;12.07;;
49235;SDS011;35067;48.134;8.378;2023-04-19T01:48:06;22.73;;;13.10;;
49235;SDS011;35067;48.134;8.378;2023-04-19T01:49:27;21.25;;;12.65;;
49235;SDS011;35067;48.134;8.378;2023-04-19T01:50:48;20.27;;;12.45;;
49235;SDS011;35067;48.134;8.378;2023-04-19T01:52:09;21.35;;;12.27;;
49235;SDS011;35067;48.134;8.378;2023-04-19T01:53:30;21.02;;;13.05;;
49235;SDS011;35067;48.134;8.378;2023-04-19T01:54:51;21.10;;;12.18;;
49235;SDS011;35067;48.134;8.378;2023-04-19T01:56:12;23.75;;;13.27;;
49235;SDS011;35067;48.134;8.378;2023-04-19T01:57:33;20.92;;;12.07;;
49235;SDS011;35067;48.134;8.378;2023-04-19T01:58:55;20.77;;;12.43;;
49235;SDS011;35067;48.134;8.378;2023-04-19T02:00:16;32.78;;;13.70;;
49235;SDS011;35067;48.134;8.378;2023-04-19T02:01:37;23.30;;;12.43;;
49235;SDS011;35067;48.134;8.378;2023-04-19T02:02:58;22.15;;;13.07;;
49235;SDS011;35067;48.134;8.378;2023-04-19T02:04:19;23.98;;;12.75;;
49235;SDS011;35067;48.134;8.378;2023-04-19T02:05:43;21.15;;;12.25;;
49235;SDS011;35067;48.134;8.378;2023-04-19T02:07:04;24.38;;;12.90;;
49235;SDS011;35067;48.134;8.378;2023-04-19T02:08:25;23.45;;;12.82;;
49235;SDS011;35067;48.134;8.378;2023-04-19T02:09:47;19.45;;;11.30;;
49235;SDS011;35067;48.134;8.378;2023-04-19T02:11:08;19.63;;;11.77;;
49235;SDS011;35067;48.134;8.378;2023-04-19T02:12:31;20.55;;;12.18;;
49235;SDS011;35067;48.134;8.378;2023-04-19T02:13:53;19.83;;;11.75;;
49235;SDS011;35067;48.134;8.378;2023-04-19T02:15:15;23.02;;;13.02;;
49235;SDS011;35067;48.134;8.378;2023-04-19T02:16:36;20.33;;;12.13;;
49235;SDS011;35067;48.134;8.378;2023-04-19T02:17:57;21.70;;;12.43;;
49235;SDS011;35067;48.134;8.378;2023-04-19T02:19:19;21.70;;;12.15;;
49235;SDS011;35067;48.134;8.378;2023-04-19T02:20:40;17.73;;;11.15;;
49235;SDS011;35067;48.134;8.378;2023-04-19T02:22:01;22.13;;;12.90;;
49235;SDS011;35067;48.134;8.378;2023-04-19T02:23:22;19.55;;;12.23;;
49235;SDS011;35067;48.134;8.378;2023-04-19T02:24:43;20.80;;;12.13;;
49235;SDS011;35067;48.134;8.378;2023-04-19T02:26:05;20.60;;;12.43;;
49235;SDS011;35067;48.134;8.378;2023-04-19T02:27:26;20.75;;;12.75;;
49235;SDS011;35067;48.134;8.378;2023-04-19T02:28:49;20.80;;;12.57;;
49235;SDS011;35067;48.134;8.378;2023-04-19T02:30:11;17.75;;;12.05;;
49235;SDS011;35067;48.134;8.378;2023-04-19T02:31:33;22.95;;;12.27;;
49235;SDS011;35067;48.134;8.378;2023-04-19T02:32:54;17.90;;;11.27;;
49235;SDS011;35067;48.134;8.378;2023-04-19T02:34:15;21.40;;;11.93;;
49235;SDS011;35067;48.134;8.378;2023-04-19T02:35:36;21.38;;;12.68;;
49235;SDS011;35067;48.134;8.378;2023-04-19T02:36:57;20.48;;;12.77;;
49235;SDS011;35067;48.134;8.378;2023-04-19T02:38:18;21.67;;;12.52;;
49235;SDS011;35067;48.134;8.378;2023-04-19T02:39:39;20.40;;;11.65;;
49235;SDS011;35067;48.134;8.378;2023-04-19T02:41:01;20.77;;;12.27;;
49235;SDS011;35067;48.134;8.378;2023-04-19T02:42:23;21.90;;;12.95;;
49235;SDS011;35067;48.134;8.378;2023-04-19T02:43:44;16.83;;;10.90;;
49235;SDS011;35067;48.134;8.378;2023-04-19T02:45:05;18.20;;;11.00;;
49235;SDS011;35067;48.134;8.378;2023-04-19T02:46:28;22.58;;;12.35;;
49235;SDS011;35067;48.134;8.378;2023-04-19T02:47:49;21.23;;;12.90;;
49235;SDS011;35067;48.134;8.378;2023-04-19T02:49:10;18.85;;;11.57;;
49235;SDS011;35067;48.134;8.378;2023-04-19T02:50:31;18.67;;;11.43;;
49235;SDS011;35067;48.134;8.378;2023-04-19T02:51:52;18.70;;;10.65;;
49235;SDS011;35067;48.134;8.378;2023-04-19T02:53:13;20.85;;;11.80;;
49235;SDS011;35067;48.134;8.378;2023-04-19T02:54:34;17.38;;;10.68;;
49235;SDS011;35067;48.134;8.378;2023-04-19T02:55:55;20.35;;;11.63;;
49235;SDS011;35067;48.134;8.378;2023-04-19T02:57:16;20.80;;;12.13;;
49235;SDS011;35067;48.134;8.378;2023-04-19T02:58:37;19.05;;;11.32;;
49235;SDS011;35067;48.134;8.378;2023-04-19T02:59:58;22.42;;;11.90;;
49235;SDS011;35067;48.134;8.378;2023-04-19T03:01:19;23.50;;;13.63;;
49235;SDS011;35067;48.134;8.378;2023-04-19T03:02:41;18.42;;;10.93;;
49235;SDS011;35067;48.134;8.378;2023-04-19T03:04:03;19.38;;;11.93;;
49235;SDS011;35067;48.134;8.378;2023-04-19T03:05:24;20.25;;;11.38;;
49235;SDS011;35067;48.134;8.378;2023-04-19T03:06:45;22.33;;;12.35;;
49235;SDS011;35067;48.134;8.378;2023-04-19T03:08:06;16.45;;;11.02;;
49235;SDS011;35067;48.134;8.378;2023-04-19T03:09:27;19.92;;;11.80;;
49235;SDS011;35067;48.134;8.378;2023-04-19T03:10:48;19.85;;;11.48;;
49235;SDS011;35067;48.134;8.378;2023-04-19T03:12:09;22.95;;;12.25;;
49235;SDS011;35067;48.134;8.378;2023-04-19T03:13:31;21.58;;;12.48;;
49235;SDS011;35067;48.134;8.378;2023-04-19T03:14:52;18.77;;;11.20;;
49235;SDS011;35067;48.134;8.378;2023-04-19T03:16:13;21.95;;;12.15;;
49235;SDS011;35067;48.134;8.378;2023-04-19T03:17:34;20.30;;;12.45;;
49235;SDS011;35067;48.134;8.378;2023-04-19T03:18:56;21.00;;;11.95;;
49235;SDS011;35067;48.134;8.378;2023-04-19T03:20:17;21.90;;;13.05;;
49235;SDS011;35067;48.134;8.378;2023-04-19T03:21:40;22.10;;;12.30;;
49235;SDS011;35067;48.134;8.378;2023-04-19T03:23:01;21.92;;;12.05;;
49235;SDS011;35067;48.134;8.378;2023-04-19T03:24:28;19.35;;;11.20;;
49235;SDS011;35067;48.134;8.378;2023-04-19T03:25:50;22.15;;;12.63;;
49235;SDS011;35067;48.134;8.378;2023-04-19T03:27:11;21.27;;;12.55;;
49235;SDS011;35067;48.134;8.378;2023-04-19T03:28:32;20.90;;;12.60;;
49235;SDS011;35067;48.134;8.378;2023-04-19T03:29:54;22.42;;;11.75;;
49235;SDS011;35067;48.134;8.378;2023-04-19T03:31:16;22.10;;;12.73;;
49235;SDS011;35067;48.134;8.378;2023-04-19T03:32:37;23.65;;;12.30;;
49235;SDS011;35067;48.134;8.378;2023-04-19T03:33:58;21.63;;;13.07;;
49235;SDS011;35067;48.134;8.378;2023-04-19T03:35:19;20.25;;;11.80;;
49235;SDS011;35067;48.134;8.378;2023-04-19T03:36:41;22.35;;;12.57;;
49235;SDS011;35067;48.134;8.378;2023-04-19T03:38:02;19.70;;;12.02;;
49235;SDS011;35067;48.134;8.378;2023-04-19T03:39:23;22.13;;;12.75;;
49235;SDS011;35067;48.134;8.378;2023-04-19T03:40:45;20.33;;;11.88;;
49235;SDS011;35067;48.134;8.378;2023-04-19T03:42:07;22.10;;;12.73;;
49235;SDS011;35067;48.134;8.378;2023-04-19T03:43:28;21.52;;;12.25;;
49235;SDS011;35067;48.134;8.378;2023-04-19T03:44:49;20.80;;;11.95;;
49235;SDS011;35067;48.134;8.378;2023-04-19T03:46:10;23.08;;;12.82;;
49235;SDS011;35067;48.134;8.378;2023-04-19T03:47:31;21.67;;;12.75;;
49235;SDS011;35067;48.134;8.378;2023-04-19T03:48:52;23.27;;;12.02;;
49235;SDS011;35067;48.134;8.378;2023-04-19T03:50:13;19.98;;;11.43;;
49235;SDS011;35067;48.134;8.378;2023-04-19T03:51:34;25.08;;;13.13;;
49235;SDS011;35067;48.134;8.378;2023-04-19T03:52:55;22.20;;;12.40;;
49235;SDS011;35067;48.134;8.378;2023-04-19T03:54:16;24.40;;;13.35;;
49235;SDS011;35067;48.134;8.378;2023-04-19T03:55:37;23.38;;;12.63;;
49235;SDS011;35067;48.134;8.378;2023-04-19T03:56:58;19.27;;;11.68;;
49235;SDS011;35067;48.134;8.378;2023-04-19T03:58:19;21.42;;;12.38;;
49235;SDS011;35067;48.134;8.378;2023-04-19T03:59:41;20.70;;;13.20;;
49235;SDS011;35067;48.134;8.378;2023-04-19T04:01:02;23.98;;;13.25;;
49235;SDS011;35067;48.134;8.378;2023-04-19T04:02:24;21.38;;;13.38;;
49235;SDS011;35067;48.134;8.378;2023-04-19T04:03:45;20.52;;;12.38;;
49235;SDS011;35067;48.134;8.378;2023-04-19T04:05:06;21.55;;;12.48;;
49235;SDS011;35067;48.134;8.378;2023-04-19T04:06:28;26.02;;;14.15;;
49235;SDS011;35067;48.134;8.378;2023-04-19T04:07:49;23.30;;;12.65;;
49235;SDS011;35067;48.134;8.378;2023-04-19T04:09:10;19.92;;;12.65;;
49235;SDS011;35067;48.134;8.378;2023-04-19T04:10:31;23.35;;;13.60;;
49235;SDS011;35067;48.134;8.378;2023-04-19T04:11:52;21.10;;;13.70;;
49235;SDS011;35067;48.134;8.378;2023-04-19T04:13:13;25.52;;;13.60;;
49235;SDS011;35067;48.134;8.378;2023-04-19T04:14:34;23.63;;;13.90;;
49235;SDS011;35067;48.134;8.378;2023-04-19T04:15:55;21.55;;;13.60;;
49235;SDS011;35067;48.134;8.378;2023-04-19T04:17:16;20.08;;;12.32;;
49235;SDS011;35067;48.134;8.378;2023-04-19T04:18:37;21.63;;;12.73;;
49235;SDS011;35067;48.134;8.378;2023-04-19T04:19:58;20.55;;;12.63;;
49235;SDS011;35067;48.134;8.378;2023-04-19T04:21:20;20.95;;;12.38;;
49235;SDS011;35067;48.134;8.378;2023-04-19T04:22:43;22.48;;;11.85;;
49235;SDS011;35067;48.134;8.378;2023-04-19T04:24:07;20.85;;;12.13;;
49235;SDS011;35067;48.134;8.378;2023-04-19T04:25:29;25.20;;;15.00;;
49235;SDS011;35067;48.134;8.378;2023-04-19T04:26:52;20.83;;;12.63;;
49235;SDS011;35067;48.134;8.378;2023-04-19T04:28:13;21.52;;;12.48;;
49235;SDS011;35067;48.134;8.378;2023-04-19T04:29:35;21.35;;;12.00;;
49235;SDS011;35067;48.134;8.378;2023-04-19T04:30:57;26.05;;;15.80;;
49235;SDS011;35067;48.134;8.378;2023-04-19T04:32:19;23.95;;;12.88;;
49235;SDS011;35067;48.134;8.378;2023-04-19T04:33:42;21.38;;;13.00;;
49235;SDS011;35067;48.134;8.378;2023-04-19T04:35:05;21.17;;;12.88;;
49235;SDS011;35067;48.134;8.378;2023-04-19T04:36:28;19.52;;;12.25;;
49235;SDS011;35067;48.134;8.378;2023-04-19T04:37:50;23.38;;;12.88;;
49235;SDS011;35067;48.134;8.378;2023-04-19T04:39:13;18.77;;;11.18;;
49235;SDS011;35067;48.134;8.378;2023-04-19T04:40:34;25.80;;;12.77;;
49235;SDS011;35067;48.134;8.378;2023-04-19T04:41:55;23.17;;;12.63;;
49235;SDS011;35067;48.134;8.378;2023-04-19T04:43:22;21.60;;;12.32;;
49235;SDS011;35067;48.134;8.378;2023-04-19T04:44:45;22.00;;;12.35;;
49235;SDS011;35067;48.134;8.378;2023-04-19T04:46:06;19.52;;;11.65;;
49235;SDS011;35067;48.134;8.378;2023-04-19T04:47:30;21.63;;;12.30;;
49235;SDS011;35067;48.134;8.378;2023-04-19T04:48:52;23.00;;;12.73;;
49235;SDS011;35067;48.134;8.378;2023-04-19T04:50:13;22.85;;;12.65;;
49235;SDS011;35067;48.134;8.378;2023-04-19T04:51:35;22.02;;;13.35;;
49235;SDS011;35067;48.134;8.378;2023-04-19T04:52:57;23.95;;;13.55;;
49235;SDS011;35067;48.134;8.378;2023-04-19T04:54:18;23.45;;;13.43;;
49235;SDS011;35067;48.134;8.378;2023-04-19T04:55:39;21.17;;;12.55;;
49235;SDS011;35067;48.134;8.378;2023-04-19T04:57:00;23.52;;;13.43;;
49235;SDS011;35067;48.134;8.378;2023-04-19T04:58:22;20.45;;;11.80;;
49235;SDS011;35067;48.134;8.378;2023-04-19T04:59:43;23.48;;;12.57;;
49235;SDS011;35067;48.134;8.378;2023-04-19T05:01:04;23.30;;;13.40;;
49235;SDS011;35067;48.134;8.378;2023-04-19T05:02:25;20.63;;;11.68;;
49235;SDS011;35067;48.134;8.378;2023-04-19T05:03:46;21.88;;;12.27;;
49235;SDS011;35067;48.134;8.378;2023-04-19T05:05:07;21.35;;;12.90;;
49235;SDS011;35067;48.134;8.378;2023-04-19T05:06:30;20.75;;;11.88;;
49235;SDS011;35067;48.134;8.378;2023-04-19T05:07:51;21.75;;;13.30;;
49235;SDS011;35067;48.134;8.378;2023-04-19T05:09:12;21.52;;;12.07;;
49235;SDS011;35067;48.134;8.378;2023-04-19T05:10:33;22.70;;;13.45;;
49235;SDS011;35067;48.134;8.378;2023-04-19T05:11:54;22.90;;;13.73;;
49235;SDS011;35067;48.134;8.378;2023-04-19T05:13:15;22.83;;;12.93;;
49235;SDS011;35067;48.134;8.378;2023-04-19T05:14:36;20.52;;;12.38;;
49235;SDS011;35067;48.134;8.378;2023-04-19T05:15:57;21.45;;;12.85;;
49235;SDS011;35067;48.134;8.378;2023-04-19T05:17:18;24.15;;;12.50;;
49235;SDS011;35067;48.134;8.378;2023-04-19T05:18:39;22.95;;;12.98;;
49235;SDS011;35067;48.134;8.378;2023-04-19T05:20:00;21.75;;;13.82;;
49235;SDS011;35067;48.134;8.378;2023-04-19T05:21:21;23.05;;;13.00;;
49235;SDS011;35067;48.134;8.378;2023-04-19T05:22:42;20.95;;;12.75;;
49235;SDS011;35067;48.134;8.378;2023-04-19T05:24:04;24.48;;;12.93;;
49235;SDS011;35067;48.134;8.378;2023-04-19T05:25:25;26.60;;;13.90;;
49235;SDS011;35067;48.134;8.378;2023-04-19T05:26:46;21.23;;;12.40;;
49235;SDS011;35067;48.134;8.378;2023-04-19T05:28:07;21.30;;;12.43;;
49235;SDS011;35067;48.134;8.378;2023-04-19T05:29:28;21.58;;;12.52;;
49235;SDS011;35067;48.134;8.378;2023-04-19T05:30:50;21.42;;;12.75;;
49235;SDS011;35067;48.134;8.378;2023-04-19T05:32:11;19.50;;;12.05;;
49235;SDS011;35067;48.134;8.378;2023-04-19T05:33:33;22.23;;;12.38;;
49235;SDS011;35067;48.134;8.378;2023-04-19T05:34:54;21.73;;;12.38;;
49235;SDS011;35067;48.134;8.378;2023-04-19T05:36:15;20.90;;;12.57;;
49235;SDS011;35067;48.134;8.378;2023-04-19T05:37:36;21.15;;;12.43;;
49235;SDS011;35067;48.134;8.378;2023-04-19T05:38:58;18.65;;;10.93;;
49235;SDS011;35067;48.134;8.378;2023-04-19T05:40:19;21.67;;;12.15;;
49235;SDS011;35067;48.134;8.378;2023-04-19T05:41:42;23.67;;;13.10;;
49235;SDS011;35067;48.134;8.378;2023-04-19T05:43:03;27.08;;;14.20;;
49235;SDS011;35067;48.134;8.378;2023-04-19T05:44:24;22.23;;;12.10;;
49235;SDS011;35067;48.134;8.378;2023-04-19T05:45:45;21.95;;;12.55;;
49235;SDS011;35067;48.134;8.378;2023-04-19T05:47:06;21.30;;;12.63;;
49235;SDS011;35067;48.134;8.378;2023-04-19T05:48:28;21.10;;;12.38;;
49235;SDS011;35067;48.134;8.378;2023-04-19T05:49:49;20.80;;;12.15;;
49235;SDS011;35067;48.134;8.378;2023-04-19T05:51:10;22.05;;;13.15;;
49235;SDS011;35067;48.134;8.378;2023-04-19T05:52:33;24.00;;;12.77;;
49235;SDS011;35067;48.134;8.378;2023-04-19T05:53:54;21.00;;;12.32;;
49235;SDS011;35067;48.134;8.378;2023-04-19T05:55:15;23.75;;;12.93;;
49235;SDS011;35067;48.134;8.378;2023-04-19T05:56:37;22.92;;;12.30;;
49235;SDS011;35067;48.134;8.378;2023-04-19T05:57:58;27.48;;;15.45;;
49235;SDS011;35067;48.134;8.378;2023-04-19T05:59:20;21.55;;;13.05;;
49235;SDS011;35067;48.134;8.378;2023-04-19T06:00:41;20.92;;;12.68;;
49235;SDS011;35067;48.134;8.378;2023-04-19T06:02:02;22.20;;;11.57;;
49235;SDS011;35067;48.134;8.378;2023-04-19T06:03:24;19.15;;;11.75;;
49235;SDS011;35067;48.134;8.378;2023-04-19T06:04:45;21.98;;;11.75;;
49235;SDS011;35067;48.134;8.378;2023-04-19T06:06:06;17.88;;;11.35;;
49235;SDS011;35067;48.134;8.378;2023-04-19T06:07:27;20.08;;;11.57;;
49235;SDS011;35067;48.134;8.378;2023-04-19T06:08:48;17.80;;;10.82;;
49235;SDS011;35067;48.134;8.378;2023-04-19T06:10:10;20.30;;;11.88;;
49235;SDS011;35067;48.134;8.378;2023-04-19T06:11:31;21.80;;;12.25;;
49235;SDS011;35067;48.134;8.378;2023-04-19T06:12:52;18.67;;;10.93;;
49235;SDS011;35067;48.134;8.378;2023-04-19T06:14:13;19.52;;;11.50;;
49235;SDS011;35067;48.134;8.378;2023-04-19T06:15:34;19.75;;;11.65;;
49235;SDS011;35067;48.134;8.378;2023-04-19T06:16:55;20.15;;;11.75;;
49235;SDS011;35067;48.134;8.378;2023-04-19T06:18:16;20.77;;;12.23;;
49235;SDS011;35067;48.134;8.378;2023-04-19T06:19:37;17.63;;;11.15;;
49235;SDS011;35067;48.134;8.378;2023-04-19T06:20:58;17.83;;;11.60;;
49235;SDS011;35067;48.134;8.378;2023-04-19T06:22:19;22.33;;;12.43;;
49235;SDS011;35067;48.134;8.378;2023-04-19T06:23:40;17.48;;;11.27;;
49235;SDS011;35067;48.134;8.378;2023-04-19T06:25:01;16.30;;;10.32;;
49235;SDS011;35067;48.134;8.378;2023-04-19T06:26:23;18.13;;;10.52;;
49235;SDS011;35067;48.134;8.378;2023-04-19T06:27:44;16.35;;;10.25;;
49235;SDS011;35067;48.134;8.378;2023-04-19T06:29:05;17.50;;;10.18;;
49235;SDS011;35067;48.134;8.378;2023-04-19T06:30:26;19.60;;;11.13;;
49235;SDS011;35067;48.134;8.378;2023-04-19T06:31:47;16.65;;;9.77;;
49235;SDS011;35067;48.134;8.378;2023-04-19T06:33:08;15.48;;;9.52;;
49235;SDS011;35067;48.134;8.378;2023-04-19T06:34:29;14.73;;;9.85;;
49235;SDS011;35067;48.134;8.378;2023-04-19T06:35:50;19.83;;;10.48;;
49235;SDS011;35067;48.134;8.378;2023-04-19T06:37:11;16.42;;;10.45;;
49235;SDS011;35067;48.134;8.378;2023-04-19T06:38:32;16.85;;;10.82;;
49235;SDS011;35067;48.134;8.378;2023-04-19T06:39:53;18.83;;;10.43;;
49235;SDS011;35067;48.134;8.378;2023-04-19T06:41:14;19.00;;;10.63;;
49235;SDS011;35067;48.134;8.378;2023-04-19T06:42:36;17.67;;;10.85;;
49235;SDS011;35067;48.134;8.378;2023-04-19T06:43:57;16.60;;;10.40;;
49235;SDS011;35067;48.134;8.378;2023-04-19T06:45:18;15.80;;;9.40;;
49235;SDS011;35067;48.134;8.378;2023-04-19T06:46:39;16.90;;;11.43;;
49235;SDS011;35067;48.134;8.378;2023-04-19T06:48:00;14.73;;;9.63;;
49235;SDS011;35067;48.134;8.378;2023-04-19T06:49:21;15.75;;;9.55;;
49235;SDS011;35067;48.134;8.378;2023-04-19T06:50:42;16.90;;;10.93;;
49235;SDS011;35067;48.134;8.378;2023-04-19T06:52:04;16.58;;;9.70;;
49235;SDS011;35067;48.134;8.378;2023-04-19T06:53:25;17.48;;;10.32;;
49235;SDS011;35067;48.134;8.378;2023-04-19T06:54:49;12.07;;;8.55;;
49235;SDS011;35067;48.134;8.378;2023-04-19T06:56:10;13.55;;;9.43;;
49235;SDS011;35067;48.134;8.378;2023-04-19T06:57:32;14.02;;;9.48;;
49235;SDS011;35067;48.134;8.378;2023-04-19T06:58:54;13.57;;;9.10;;
49235;SDS011;35067;48.134;8.378;2023-04-19T07:00:15;15.40;;;9.32;;
49235;SDS011;35067;48.134;8.378;2023-04-19T07:01:36;17.90;;;10.02;;
49235;SDS011;35067;48.134;8.378;2023-04-19T07:02:58;20.17;;;10.73;;
49235;SDS011;35067;48.134;8.378;2023-04-19T07:04:19;14.32;;;9.48;;
49235;SDS011;35067;48.134;8.378;2023-04-19T07:05:40;14.23;;;9.18;;
49235;SDS011;35067;48.134;8.378;2023-04-19T07:07:02;12.88;;;8.73;;
49235;SDS011;35067;48.134;8.378;2023-04-19T07:08:23;14.70;;;8.88;;
49235;SDS011;35067;48.134;8.378;2023-04-19T07:09:45;14.23;;;9.23;;
49235;SDS011;35067;48.134;8.378;2023-04-19T07:11:06;14.30;;;9.15;;
49235;SDS011;35067;48.134;8.378;2023-04-19T07:12:27;14.07;;;9.48;;
49235;SDS011;35067;48.134;8.378;2023-04-19T07:13:48;15.07;;;9.68;;
49235;SDS011;35067;48.134;8.378;2023-04-19T07:15:12;13.23;;;8.52;;
49235;SDS011;35067;48.134;8.378;2023-04-19T07:16:33;14.40;;;9.85;;
49235;SDS011;35067;48.134;8.378;2023-04-19T07:17:54;15.75;;;10.13;;
49235;SDS011;35067;48.134;8.378;2023-04-19T07:19:15;14.45;;;9.13;;
49235;SDS011;35067;48.134;8.378;2023-04-19T07:20:38;15.30;;;10.57;;
49235;SDS011;35067;48.134;8.378;2023-04-19T07:22:03;13.73;;;9.77;;
49235;SDS011;35067;48.134;8.378;2023-04-19T07:23:25;13.60;;;9.18;;
49235;SDS011;35067;48.134;8.378;2023-04-19T07:24:46;13.70;;;9.15;;
49235;SDS011;35067;48.134;8.378;2023-04-19T07:26:07;13.85;;;9.45;;
49235;SDS011;35067;48.134;8.378;2023-04-19T07:27:28;14.88;;;9.32;;
49235;SDS011;35067;48.134;8.378;2023-04-19T07:28:49;12.98;;;8.98;;
49235;SDS011;35067;48.134;8.378;2023-04-19T07:30:10;14.13;;;9.45;;
49235;SDS011;35067;48.134;8.378;2023-04-19T07:31:31;15.10;;;9.25;;
49235;SDS011;35067;48.134;8.378;2023-04-19T07:32:52;12.32;;;8.02;;
49235;SDS011;35067;48.134;8.378;2023-04-19T07:34:13;13.45;;;9.38;;
49235;SDS011;35067;48.134;8.378;2023-04-19T07:35:34;14.02;;;9.65;;
49235;SDS011;35067;48.134;8.378;2023-04-19T07:36:58;15.38;;;10.40;;
49235;SDS011;35067;48.134;8.378;2023-04-19T07:38:19;17.10;;;10.35;;
49235;SDS011;35067;48.134;8.378;2023-04-19T07:39:40;15.77;;;9.75;;
49235;SDS011;35067;48.134;8.378;2023-04-19T07:41:02;14.60;;;9.82;;
49235;SDS011;35067;48.134;8.378;2023-04-19T07:42:24;13.80;;;8.57;;
49235;SDS011;35067;48.134;8.378;2023-04-19T07:43:45;14.60;;;9.15;;
49235;SDS011;35067;48.134;8.378;2023-04-19T07:45:06;18.15;;;10.13;;
49235;SDS011;35067;48.134;8.378;2023-04-19T07:46:28;15.38;;;9.68;;
49235;SDS011;35067;48.134;8.378;2023-04-19T07:47:49;13.20;;;8.52;;
49235;SDS011;35067;48.134;8.378;2023-04-19T07:49:10;14.05;;;9.10;;
49235;SDS011;35067;48.134;8.378;2023-04-19T07:50:31;12.90;;;9.45;;
49235;SDS011;35067;48.134;8.378;2023-04-19T07:51:52;14.32;;;8.90;;
49235;SDS011;35067;48.134;8.378;2023-04-19T07:53:13;16.20;;;9.27;;
49235;SDS011;35067;48.134;8.378;2023-04-19T07:54:35;15.98;;;10.15;;
49235;SDS011;35067;48.134;8.378;2023-04-19T07:55:58;12.88;;;8.57;;
49235;SDS011;35067;48.134;8.378;2023-04-19T07:57:19;14.18;;;9.35;;